Flight Track Log - Related Links

Times and Time Zones

All times are in EDT time to prevent confusion due to time zone crossing. See the JAI581 flight status page for this flight to view local times or setup timezone preferences in your user account.

Time Position Orientation Groundspeed Altitude Reporting Facility
EDT Latitude Longitude Course Direction KTS MPH feet Rate Location/Type
Wed 05:20:32 PM 24.4200 54.6700 123° Southeast 177 204 1,000  Level FlightAware ADS-B
Wed 05:21:27 PM 24.3920 54.7140 125° Southeast 239 275 2,000 750 Climbing FlightAware ADS-B
Wed 05:21:52 PM 24.3770 54.7350 128° Southeast 239 275 2,000 1,964 Level FlightAware ADS-B
Wed 05:22:22 PM 24.3520 54.7690 129° Southeast 242 278 3,800 1,158 Climbing FlightAware ADS-B
Wed 05:24:00 PM 24.4022 54.9522 73° East  Level Estimated
Wed 05:25:00 PM 24.4328 55.0645 73° East  Level Estimated
Wed 05:26:00 PM 24.4634 55.1768 73° East  Level Estimated
Wed 05:27:00 PM 24.4939 55.2891 73° East  Level Estimated
Wed 05:28:00 PM 24.5242 55.4015 73° East  Level Estimated
Wed 05:29:00 PM 24.5545 55.5140 73° East  Level Estimated
Wed 05:30:00 PM 24.5848 55.6265 74° East  Level Estimated
Wed 05:31:00 PM 24.6149 55.7391 74° East  Level Estimated
Wed 05:32:00 PM 24.6449 55.8517 74° East  Level Estimated
Wed 05:33:00 PM 24.6749 55.9644 74° East  Level Estimated
Wed 05:34:00 PM 24.7048 56.0771 74° East  Level Estimated
Wed 05:35:00 PM 24.7346 56.1899 74° East  Level Estimated
Wed 05:36:00 PM 24.7643 56.3028 74° East  Level Estimated
Wed 05:37:00 PM 24.7939 56.4157 74° East  Level Estimated
Wed 05:38:00 PM 24.8235 56.5286 74° East  Level Estimated
Wed 05:39:00 PM 24.8529 56.6417 74° East  Level Estimated
Wed 05:40:00 PM 24.8823 56.7547 74° East  Level Estimated
Wed 05:41:00 PM 24.9116 56.8678 74° East  Level Estimated
Wed 05:42:00 PM 24.9408 56.9810 74° East  Level Estimated
Wed 05:43:00 PM 24.9699 57.0942 74° East  Level Estimated
Wed 05:44:00 PM 24.9989 57.2075 74° East  Level Estimated
Wed 05:45:00 PM 25.0279 57.3208 74° East  Level Estimated
Wed 05:46:00 PM 25.0567 57.4342 74° East  Level Estimated
Wed 05:47:00 PM 25.0855 57.5476 74° East  Level Estimated
Wed 05:48:00 PM 25.1142 57.6611 74° East  Level Estimated
Wed 05:49:00 PM 25.1428 57.7747 74° East  Level Estimated
Wed 05:50:00 PM 25.1713 57.8882 74° East  Level Estimated
Wed 05:50:22 PM 23.6330 58.5090 74° East 526 605 35,000  Level FlightAware ADS-B
Wed 05:51:02 PM 23.6500 58.6110 80° East 527 606 35,000  Level FlightAware ADS-B
Wed 05:51:47 PM 23.6700 58.7350 80° East 527 606 35,000  Level FlightAware ADS-B
Wed 05:52:27 PM 23.6870 58.8340 79° East 528 608 35,000  Level FlightAware ADS-B
Wed 05:53:07 PM 23.7010 58.9230 80° East 528 608 35,000  Level FlightAware ADS-B
Wed 05:53:47 PM 23.7160 59.0130 80° East 528 608 35,000  Level FlightAware ADS-B
Wed 05:54:37 PM 23.7340 59.1240 80° East 528 608 35,000  Level FlightAware ADS-B
Wed 05:55:17 PM 23.7480 59.2140 80° East 528 608 35,000  Level FlightAware ADS-B
Wed 05:55:57 PM 23.7620 59.3030 80° East 528 608 35,000  Level FlightAware ADS-B
Wed 05:56:37 PM 23.7770 59.3920 80° East 528 608 35,000  Level FlightAware ADS-B
Wed 05:57:17 PM 23.7910 59.4820 80° East 528 608 35,000  Level FlightAware ADS-B
Wed 05:58:07 PM 23.8090 59.5940 80° East 528 608 35,000  Level FlightAware ADS-B
Wed 05:58:47 PM 23.8240 59.6830 80° East 528 608 35,000  Level FlightAware ADS-B
Wed 05:59:27 PM 23.8380 59.7720 80° East 528 608 35,000  Level FlightAware ADS-B
Wed 06:00:07 PM 23.8530 59.8620 80° East 528 608 35,000  Level FlightAware ADS-B
Wed 06:00:47 PM 23.8670 59.9510 80° East 528 608 35,000  Level FlightAware ADS-B
Wed 06:01:37 PM 23.8850 60.0630 80° East 528 608 35,000  Level FlightAware ADS-B
Wed 06:04:00 PM 23.9746 60.3234 69° East  Level Estimated
Wed 06:05:00 PM 24.0121 60.4327 69° East  Level Estimated
Wed 06:06:00 PM 24.0495 60.5421 69° East  Level Estimated
Wed 06:07:00 PM 24.0869 60.6516 69° East  Level Estimated
Wed 06:08:00 PM 24.1241 60.7611 70° East  Level Estimated
Wed 06:09:00 PM 24.1613 60.8707 70° East  Level Estimated
Wed 06:10:00 PM 24.1984 60.9804 70° East  Level Estimated
Wed 06:11:00 PM 24.2354 61.0901 70° East  Level Estimated
Wed 06:12:00 PM 24.2724 61.1999 70° East  Level Estimated
Wed 06:13:00 PM 24.3092 61.3098 70° East  Level Estimated
Wed 06:14:00 PM 24.3460 61.4197 70° East  Level Estimated
Wed 06:15:00 PM 24.3827 61.5297 70° East  Level Estimated
Wed 06:16:00 PM 24.4193 61.6398 70° East  Level Estimated
Wed 06:17:00 PM 24.4537 61.7434 70° East  Level Estimated
Wed 06:18:00 PM 24.4880 61.8471 70° East  Level Estimated
Wed 06:19:00 PM 24.5223 61.9508 70° East  Level Estimated
Wed 06:20:00 PM 24.5565 62.0546 70° East  Level Estimated
Wed 06:21:00 PM 24.5906 62.1585 70° East  Level Estimated
Wed 06:22:00 PM 24.6246 62.2624 70° East  Level Estimated
Wed 06:22:47 PM 24.5200 63.5330 70° East 509 586 35,000  Level FlightAware ADS-B
Wed 06:23:32 PM 24.5430 63.6540 78° East 510 587 35,000  Level FlightAware ADS-B
Wed 06:24:17 PM 24.5650 63.7700 78° East 509 586 35,000  Level FlightAware ADS-B
Wed 06:24:57 PM 24.5830 63.8650 78° East 509 586 35,000  Level FlightAware ADS-B
Wed 06:25:42 PM 24.6060 63.9830 78° East 510 587 35,000  Level FlightAware ADS-B
Wed 06:26:22 PM 24.6250 64.0810 78° East 510 587 35,000  Level FlightAware ADS-B
Wed 06:27:02 PM 24.6450 64.1870 78° East 511 588 35,000  Level FlightAware ADS-B
Wed 06:27:47 PM 24.6670 64.3030 78° East 512 589 35,000  Level FlightAware ADS-B
Wed 06:28:27 PM 24.6860 64.4070 79° East 512 589 35,000  Level FlightAware ADS-B
Wed 06:29:07 PM 24.7050 64.5080 78° East 512 589 35,000  Level FlightAware ADS-B
Wed 06:29:52 PM 24.7260 64.6200 78° East 511 588 35,000  Level FlightAware ADS-B
Wed 06:30:32 PM 24.7450 64.7210 78° East 511 588 35,000  Level FlightAware ADS-B
Wed 06:31:17 PM 24.7670 64.8390 78° East 513 590 35,000  Level FlightAware ADS-B
Wed 06:31:57 PM 24.7860 64.9420 78° East 512 589 35,000  Level FlightAware ADS-B
Wed 06:32:37 PM 24.8040 65.0430 79° East 512 589 35,000  Level FlightAware ADS-B
Wed 06:33:22 PM 24.8250 65.1560 78° East 513 590 35,000  Level FlightAware ADS-B
Wed 06:34:02 PM 24.8440 65.2580 78° East 513 590 35,000  Level FlightAware ADS-B
Wed 06:34:47 PM 24.8640 65.3710 79° East 514 592 35,000  Level FlightAware ADS-B
Wed 06:35:27 PM 24.8840 65.4800 79° East 515 593 35,000  Level FlightAware ADS-B
Wed 06:36:07 PM 24.9020 65.5810 79° East 514 592 35,000  Level FlightAware ADS-B
Wed 06:36:52 PM 24.9220 65.6950 79° East 515 593 35,000  Level FlightAware ADS-B
Wed 06:37:32 PM 24.9410 65.7960 78° East 516 594 35,000  Level FlightAware ADS-B
Wed 06:38:17 PM 24.9620 65.9150 79° East 516 594 35,000  Level FlightAware ADS-B
Wed 06:38:57 PM 24.9800 66.0200 79° East 517 595 35,000  Level FlightAware ADS-B
Wed 06:39:37 PM 24.9980 66.1230 79° East 517 595 35,000  Level FlightAware ADS-B
Wed 06:40:22 PM 25.0180 66.2360 79° East 517 595 35,000  Level FlightAware ADS-B
Wed 06:41:02 PM 25.0360 66.3400 79° East 518 596 35,000  Level FlightAware ADS-B
Wed 06:41:47 PM 25.0570 66.4570 79° East 518 596 35,000  Level FlightAware ADS-B
Wed 06:42:27 PM 25.0740 66.5600 80° East 518 596 35,000  Level FlightAware ADS-B
Wed 06:43:07 PM 25.0920 66.6640 79° East 518 596 35,000  Level FlightAware ADS-B
Wed 06:43:52 PM 25.1120 66.7800 79° East 519 597 35,000  Level FlightAware ADS-B
Wed 06:44:32 PM 25.1300 66.8880 80° East 520 598 35,000  Level FlightAware ADS-B
Wed 06:45:12 PM 25.1480 66.9910 79° East 519 597 35,000  Level FlightAware ADS-B
Wed 06:45:57 PM 25.1680 67.1070 79° East 519 597 35,000  Level FlightAware ADS-B
Wed 06:46:37 PM 25.1850 67.2110 80° East 519 597 35,000  Level FlightAware ADS-B
Wed 06:47:17 PM 25.2020 67.3150 80° East 520 598 35,000  Level FlightAware ADS-B
Wed 06:48:02 PM 25.2380 67.4270 70° East 513 590 35,000  Level FlightAware ADS-B
Wed 06:48:42 PM 25.3000 67.5040 48° Northeast 502 578 35,000  Level FlightAware ADS-B
Wed 06:49:27 PM 25.3810 67.5750 38° Northeast 496 571 35,000  Level FlightAware ADS-B
Wed 06:50:07 PM 25.4520 67.6370 38° Northeast 496 571 35,000  Level FlightAware ADS-B
Wed 06:50:47 PM 25.5260 67.7010 38° Northeast 495 570 35,000  Level FlightAware ADS-B
Wed 06:51:32 PM 25.6050 67.7690 38° Northeast 494 568 35,000  Level FlightAware ADS-B
Wed 06:52:12 PM 25.6780 67.8320 38° Northeast 493 567 35,000  Level FlightAware ADS-B
Wed 06:52:57 PM 25.7600 67.9040 38° Northeast 491 565 35,000  Level FlightAware ADS-B
Wed 06:53:37 PM 25.8320 67.9660 38° Northeast 490 564 35,000  Level FlightAware ADS-B
Wed 06:54:17 PM 25.9030 68.0280 38° Northeast 487 560 35,000  Level FlightAware ADS-B
Wed 06:55:02 PM 25.9820 68.0970 38° Northeast 484 557 35,000  Level FlightAware ADS-B
Wed 06:55:42 PM 26.0520 68.1580 38° Northeast 483 556 35,000  Level FlightAware ADS-B
Wed 06:56:27 PM 26.1280 68.2240 38° Northeast 482 555 35,000  Level FlightAware ADS-B
Wed 06:57:07 PM 26.2000 68.2880 39° Northeast 485 558 35,000  Level FlightAware ADS-B
Wed 06:57:47 PM 26.2710 68.3510 39° Northeast 485 558 35,000  Level FlightAware ADS-B
Wed 06:58:32 PM 26.3520 68.4230 39° Northeast 486 559 35,000  Level FlightAware ADS-B
Wed 06:59:12 PM 26.4200 68.4840 39° Northeast 486 559 35,000  Level FlightAware ADS-B
Wed 06:59:57 PM 26.5010 68.5570 39° Northeast 484 557 35,000 212 Level FlightAware ADS-B
Wed 07:00:37 PM 26.5680 68.6180 39° Northeast 491 565 35,300 300 Climbing FlightAware ADS-B
Wed 07:01:17 PM 26.6360 68.6770 38° Northeast 494 568 35,400 706 Climbing FlightAware ADS-B
Wed 07:02:02 PM 26.7160 68.7510 40° Northeast 487 560 36,300 635 Climbing FlightAware ADS-B
Wed 07:02:42 PM 26.7760 68.8050 39° Northeast 487 560 36,300 494 Level FlightAware ADS-B
Wed 07:03:27 PM 26.8680 68.8890 39° Northeast 485 558 37,000 494 Climbing FlightAware ADS-B
Wed 07:04:07 PM 26.9310 68.9460 39° Northeast 487 560 37,000  Level FlightAware ADS-B
Wed 07:04:47 PM 26.9900 69.0000 39° Northeast 487 560 37,000  Level FlightAware ADS-B
Wed 07:05:27 PM 27.0500 69.0540 39° Northeast 487 560 37,000  Level FlightAware ADS-B
Wed 07:06:07 PM 27.1100 69.1080 39° Northeast 487 560 37,000  Level FlightAware ADS-B
Wed 07:06:57 PM 27.1840 69.1760 39° Northeast 487 560 37,000  Level FlightAware ADS-B
Wed 07:07:37 PM 27.2440 69.2300 39° Northeast 487 560 37,000  Level FlightAware ADS-B
Wed 07:08:17 PM 27.3030 69.2840 39° Northeast 487 560 37,000  Level FlightAware ADS-B
Wed 07:08:57 PM 27.3630 69.3390 39° Northeast 487 560 37,000  Level FlightAware ADS-B
Wed 07:09:42 PM 27.5280 69.4920 39° Northeast 500 575 37,000  Level FlightAware ADS-B
Wed 07:10:22 PM 27.5970 69.5550 39° Northeast 501 577 37,000  Level FlightAware ADS-B
Wed 07:11:07 PM 27.6740 69.6270 40° Northeast 501 577 37,000  Level FlightAware ADS-B
Wed 07:11:47 PM 27.7360 69.6830 39° Northeast 501 577 37,000  Level FlightAware ADS-B
Wed 07:12:27 PM 27.7970 69.7390 39° Northeast 501 577 37,000  Level FlightAware ADS-B
Wed 07:13:07 PM 27.8580 69.7950 39° Northeast 501 577 37,000  Level FlightAware ADS-B
Wed 07:13:57 PM 27.9350 69.8650 39° Northeast 501 577 37,000  Level FlightAware ADS-B
Wed 07:14:37 PM 27.9960 69.9210 39° Northeast 501 577 37,000  Level FlightAware ADS-B
Wed 07:15:17 PM 28.0570 69.9770 39° Northeast 501 577 37,000  Level FlightAware ADS-B
Wed 07:15:57 PM 28.1180 70.0330 39° Northeast 501 577 37,000  Level FlightAware ADS-B
Wed 07:16:47 PM 28.1950 70.1040 39° Northeast 501 577 37,000  Level FlightAware ADS-B
Wed 07:17:27 PM 28.2560 70.1600 39° Northeast 501 577 37,000  Level FlightAware ADS-B
Wed 07:18:07 PM 28.3170 70.2160 39° Northeast 501 577 37,000  Level FlightAware ADS-B
Wed 07:18:47 PM 28.3790 70.2730 39° Northeast 501 577 37,000  Level FlightAware ADS-B
Wed 07:19:27 PM 28.4400 70.3290 39° Northeast 501 577 37,000  Level FlightAware ADS-B
Wed 07:20:17 PM 28.5160 70.4000 39° Northeast 501 577 37,000 -222 Level FlightAware ADS-B
Wed 07:22:00 PM 28.5222 70.5961 88° East  Level Estimated
Wed 07:23:00 PM 28.5256 70.7103 88° East  Level Estimated
Wed 07:24:00 PM 28.5290 70.8245 88° East  Level Estimated
Wed 07:25:00 PM 28.5322 70.9388 88° East  Level Estimated
Wed 07:26:00 PM 28.5354 71.0530 88° East  Level Estimated
Wed 07:27:00 PM 28.5385 71.1673 88° East  Level Estimated
Wed 07:28:00 PM 28.5415 71.2816 88° East  Level Estimated
Wed 07:28:27 PM 28.4680 72.1580 88° East 518 596 35,000  Level FlightAware ADS-B
Wed 07:28:57 PM 28.4750 72.2470 85° East 516 594 35,000  Level FlightAware ADS-B
Wed 07:29:52 PM 28.4580 72.3960 97° East 512 589 35,000  Level FlightAware ADS-B
Wed 07:30:27 PM 28.4450 72.4860 99° East 512 589 35,000  Level FlightAware ADS-B
Wed 07:31:12 PM 28.4270 72.6040 100° East 511 588 35,000  Level FlightAware ADS-B
Wed 07:31:47 PM 28.4130 72.6950 100° East 511 588 35,000  Level FlightAware ADS-B
Wed 07:32:52 PM 28.3860 72.8700 100° East 512 589 35,000  Level FlightAware ADS-B
Wed 07:33:32 PM 28.3690 72.9790 100° East 512 589 35,000  Level FlightAware ADS-B
Wed 07:34:17 PM 28.3520 73.0920 100° East 511 588 35,000  Level FlightAware ADS-B
Wed 07:34:57 PM 28.3350 73.2010 100° East 510 587 35,000  Level FlightAware ADS-B
Wed 07:35:42 PM 28.3160 73.3210 100° East 509 586 35,000  Level FlightAware ADS-B
Wed 07:36:17 PM 28.3030 73.4050 100° East 509 586 35,000  Level FlightAware ADS-B
Wed 07:37:02 PM 28.2860 73.5150 100° East 509 586 35,000  Level FlightAware ADS-B
Wed 07:37:42 PM 28.2670 73.6280 101° East 508 585 35,000  Level FlightAware ADS-B
Wed 07:38:22 PM 28.2540 73.7170 99° East 508 585 35,000  Level FlightAware ADS-B
Wed 07:39:07 PM 28.2360 73.8230 101° East 507 583 35,000  Level FlightAware ADS-B
Wed 07:39:47 PM 28.2180 73.9340 100° East 509 586 35,000  Level FlightAware ADS-B
Wed 07:40:27 PM 28.2030 74.0240 101° East 511 588 35,000  Level FlightAware ADS-B
Wed 07:41:12 PM 28.1870 74.1300 100° East 513 590 35,000  Level FlightAware ADS-B
Wed 07:41:52 PM 28.1730 74.2200 100° East 513 590 35,000  Level FlightAware ADS-B
Wed 07:42:37 PM 28.1960 74.3770 81° East 516 594 35,000  Level FlightAware ADS-B
Wed 07:43:22 PM 28.1990 74.4970 88° East 514 592 35,000  Level FlightAware ADS-B
Wed 07:44:02 PM 28.2010 74.6120 89° East 514 592 35,000  Level FlightAware ADS-B
Wed 07:44:47 PM 28.2040 74.7230 88° East 514 592 35,000 -71 Level FlightAware ADS-B
Wed 07:45:27 PM 28.2060 74.8340 89° East 511 588 34,900 -1,129 Descending FlightAware ADS-B
Wed 07:46:12 PM 28.2090 74.9720 89° East 511 588 33,400 -1,341 Descending FlightAware ADS-B
Wed 07:46:52 PM 28.2110 75.0620 89° East 483 556 33,000 -975 Descending FlightAware ADS-B
Wed 07:47:32 PM 28.2130 75.1630 89° East 465 535 32,100 -1,500 Descending FlightAware ADS-B
Wed 07:48:12 PM 28.2150 75.2600 89° East 450 518 31,000 -1,575 Descending FlightAware ADS-B
Wed 07:48:52 PM 28.2160 75.3450 89° East 441 507 30,000 -1,725 Descending FlightAware ADS-B
Wed 07:49:32 PM 28.2180 75.4410 89° East 435 501 28,700 -2,000 Descending FlightAware ADS-B
Wed 07:50:22 PM 28.2200 75.5490 89° East 435 501 27,000 -1,933 Descending FlightAware ADS-B
Wed 07:51:02 PM 28.2210 75.6350 89° East 425 489 25,800 -1,906 Descending FlightAware ADS-B
Wed 07:51:47 PM 28.2230 75.7450 89° East 416 479 24,300 -2,188 Descending FlightAware ADS-B
Wed 07:52:27 PM 28.2240 75.8320 89° East 416 479 22,700 -2,400 Descending FlightAware ADS-B
Wed 07:53:07 PM 28.2260 75.9230 89° East 417 480 21,100 -2,100 Descending FlightAware ADS-B
Wed 07:53:47 PM 28.2270 76.0010 89° East 410 472 19,900 -1,875 Descending FlightAware ADS-B
Wed 07:54:27 PM 28.2280 76.0870 89° East 403 464 18,600 -1,875 Descending FlightAware ADS-B
Wed 07:55:07 PM 28.2280 76.1710 90° East 395 455 17,400 -1,875 Descending FlightAware ADS-B
Wed 07:55:47 PM 28.2290 76.2550 89° East 385 443 16,100 -1,832 Descending FlightAware ADS-B
Wed 07:56:42 PM 28.2450 76.3660 81° East 370 426 14,500 -1,733 Descending FlightAware ADS-B
Wed 07:57:17 PM 28.2560 76.4260 78° East 366 421 13,500 -1,768 Descending FlightAware ADS-B
Wed 07:58:17 PM 28.2740 76.5330 79° East 358 412 11,700 -1,680 Descending FlightAware ADS-B
Wed 07:58:57 PM 28.2880 76.6120 79° East 348 400 10,700 -1,050 Descending FlightAware ADS-B
Wed 07:59:37 PM 28.2990 76.6770 79° East 320 368 10,300 -857 Descending FlightAware ADS-B
Wed 08:00:07 PM 28.3080 76.7290 79° East 311 358 9,700 -1,000 Descending FlightAware ADS-B
Wed 08:00:37 PM 28.3160 76.7770 79° East 292 336 9,300 -764 Descending FlightAware ADS-B
Wed 08:01:02 PM 28.3220 76.8090 78° East 285 328 9,000 -360 Descending FlightAware ADS-B
Wed 08:01:27 PM 28.3290 76.8490 79° East 282 325 9,000 -218 Level FlightAware ADS-B
Wed 08:01:57 PM 28.3400 76.8910 73° East 282 325 8,800 -300 Descending FlightAware ADS-B
Wed 08:02:07 PM 28.3430 76.9000 69° East 282 325 8,800 -1,050 Level FlightAware ADS-B
Wed 08:02:37 PM 28.3560 76.9480 73° East 278 320 8,100 -1,015 Descending FlightAware ADS-B
Wed 08:03:12 PM 28.3690 76.9910 71° East 269 310 7,700 -720 Descending FlightAware ADS-B
Wed 08:03:52 PM 28.3850 77.0450 71° East 254 292 7,200 -771 Descending FlightAware ADS-B
Wed 08:04:22 PM 28.3960 77.0820 71° East 248 285 6,800 -857 Descending FlightAware ADS-B
Wed 08:05:02 PM 28.4110 77.1280 70° East 244 281 6,200 -1,029 Descending FlightAware ADS-B
Wed 08:05:32 PM 28.4240 77.1700 71° East 239 275 5,600 -1,091 Descending FlightAware ADS-B
Wed 08:05:57 PM 28.4330 77.1990 71° East 236 272 5,200 -840 Descending FlightAware ADS-B
Wed 08:06:22 PM 28.4410 77.2250 71° East 235 270 4,900 -1,200 Descending FlightAware ADS-B
Wed 08:06:42 PM 28.4530 77.2620 70° East 232 267 4,300 -1,200 Descending FlightAware ADS-B
Wed 08:06:57 PM 28.4650 77.2730 39° Northeast 222 255 4,200 -600 Descending FlightAware ADS-B
Wed 08:07:22 PM 28.4870 77.2830 22° Northeast 206 237 3,900 -667 Descending FlightAware ADS-B
Wed 08:07:42 PM 28.5030 77.2880 15° North 199 229 3,700 -933 Descending FlightAware ADS-B
Wed 08:08:07 PM 28.5230 77.2710 323° Northwest 195 224 3,200 -840 Descending FlightAware ADS-B
Wed 08:08:32 PM 28.5290 77.2490 287° West 188 216 3,000 -764 Descending FlightAware ADS-B
Wed 08:09:02 PM 28.5360 77.2210 286° West 180 207 2,500 -900 Descending FlightAware ADS-B
Wed 08:09:32 PM 28.5420 77.1940 284° West 170 196 2,100 -873 Descending FlightAware ADS-B
Wed 08:09:57 PM 28.5470 77.1720 285° West 166 191 1,700 -873 Descending FlightAware ADS-B
Wed 08:10:27 PM 28.5530 77.1460 285° West 170 196 1,300 -545 Descending FlightAware ADS-B
Wed 08:10:52 PM 28.5540 77.1400 281° West 170 196 1,200 -240 Descending FlightAware ADS-B
Wed 08:22:00 PM 28.5665 77.1031 99° East  Level Estimated
Wed 08:23:00 PM 28.5665 77.1031 270° West  Level Estimated
Wed 08:24:00 PM 28.5665 77.1031 270° West  Level Estimated
Wed 08:25:00 PM 28.5665 77.1031 270° West  Level Estimated
Wed 08:26:00 PM 28.5665 77.1031 270° West  Level Estimated
Wed 08:27:00 PM 28.5665 77.1031 270° West  Level Estimated
Wed 08:28:00 PM 28.5665 77.1031 270° West  Level Estimated
Wed 08:29:00 PM 28.5665 77.1031 270° West  Level Estimated
Wed 08:30:00 PM 28.5665 77.1031 270° West  Level Estimated
Wed 08:31:00 PM 28.5665 77.1031 270° West  Level Estimated
Wed 08:32:00 PM 28.5665 77.1031 270° West  Level Estimated
Wed 08:33:00 PM 28.5665 77.1031 270° West  Level Estimated
Wed 08:34:00 PM 28.5665 77.1031 270° West  Level Estimated
Wed 08:35:00 PM 28.5665 77.1031 270° West  Level Estimated
Wed 08:36:00 PM 28.5665 77.1031 270° West  Level Estimated
Wed 08:37:00 PM 28.5665 77.1031 270° West  Level Estimated
Wed 08:38:00 PM 28.5665 77.1031 270° West  Level Estimated
Wed 08:39:00 PM 28.5665 77.1031 270° West  Level Estimated
Wed 08:40:00 PM 28.5665 77.1031 270° West  Level Estimated
Wed 08:41:00 PM 28.5665 77.1031 270° West  Level Estimated

Login

Don't have an account? Register now (free) for customized features, flight alerts, and more!